Time;durP1;ratioP1;P1;durP2;ratioP2;P2;SDS_P1;SDS_P2;PMS_P1;PMS_P2;Temp;Humidity;BMP_temperature;BMP_pressure;BME280_temperature;BME280_humidity;BME280_pressure;Samples;Min_cycle;Max_cycle;Signal;HPM_P1;HPM_P2
2021/11/17 02:28:53;;;;;;;98.50;40.50;;;;;;;4.61;100.00;98633.56;10285896;28;20045;-73
2021/11/17 02:34:14;;;;;;;95.30;39.35;;;;;;;4.56;100.00;98632.22;10287077;28;21342;-73
2021/11/17 02:39:28;;;;;;;99.90;39.70;;;;;;;4.53;100.00;98632.44;10286632;28;20142;-75
2021/11/17 02:45:02;;;;;;;100.05;39.22;;;;;;;4.46;100.00;98630.25;10279280;28;20067;-75
2021/11/17 02:50:20;;;;;;;82.80;36.33;;;;;;;4.42;100.00;98625.22;10288197;28;20051;-75
2021/11/17 02:56:08;;;;;;;78.45;35.85;;;;;;;4.40;100.00;98621.84;10283762;28;20126;-76
2021/11/17 03:01:39;;;;;;;71.72;32.90;;;;;;;4.39;100.00;98625.50;10277332;28;20051;-77
2021/11/17 03:07:05;;;;;;;79.17;35.67;;;;;;;4.37;100.00;98619.41;10283641;28;20558;-76
2021/11/17 03:12:27;;;;;;;74.35;34.83;;;;;;;4.37;100.00;98616.75;10286606;28;20027;-76
2021/11/17 03:17:39;;;;;;;;;;;;;;;4.34;100.00;98608.97;10315949;28;20050;-75
2021/11/17 03:22:56;;;;;;;80.90;34.85;;;;;;;4.38;100.00;98610.44;10299146;23;20259;-62
2021/11/17 03:28:12;;;;;;;58.95;29.73;;;;;;;4.34;100.00;98607.19;10283181;28;20396;-61
2021/11/17 03:33:52;;;;;;;69.72;32.70;;;;;;;4.35;100.00;98606.19;10244614;29;20043;-64
2021/11/17 03:39:27;;;;;;;75.53;33.42;;;;;;;4.36;100.00;98604.38;10231223;28;20431;-62
2021/11/17 03:45:03;;;;;;;71.20;29.63;;;;;;;4.34;100.00;98600.97;10256405;28;20106;-64
2021/11/17 03:50:22;;;;;;;75.80;31.33;;;;;;;4.32;100.00;98604.59;10245580;28;20054;-62
2021/11/17 03:55:50;;;;;;;72.22;30.88;;;;;;;4.30;100.00;98595.88;10244032;28;20043;-63
2021/11/17 04:01:21;;;;;;;66.20;30.17;;;;;;;4.30;100.00;98605.69;10244952;28;20051;-62
2021/11/17 04:06:38;;;;;;;72.63;30.98;;;;;;;4.32;100.00;98607.28;10242080;29;20047;-63
2021/11/17 04:12:01;;;;;;;77.13;31.15;;;;;;;4.31;100.00;98602.06;10241857;28;20507;-63
2021/11/17 04:17:18;;;;;;;77.60;31.70;;;;;;;4.32;100.00;98603.78;10240373;29;20043;-61
2021/11/17 04:22:49;;;;;;;70.35;29.85;;;;;;;4.30;100.00;98589.69;10244056;28;20631;-63
2021/11/17 04:28:10;;;;;;;70.90;29.45;;;;;;;4.30;100.00;98595.03;10242522;29;20503;-63
2021/11/17 04:33:46;;;;;;;73.70;31.37;;;;;;;4.29;100.00;98588.00;10240999;28;20130;-63
2021/11/17 04:39:04;;;;;;;68.28;29.05;;;;;;;4.27;100.00;98603.25;10239256;28;20098;-64
2021/11/17 04:44:23;;;;;;;68.47;29.10;;;;;;;4.27;100.00;98601.47;10244883;28;20043;-64
2021/11/17 04:49:41;;;;;;;63.70;27.50;;;;;;;4.27;100.00;98604.13;10238696;28;20054;-63
2021/11/17 04:55:00;;;;;;;44.70;21.38;;;;;;;4.26;100.00;98607.75;10240678;28;20130;-64
2021/11/17 05:00:29;;;;;;;51.47;23.92;;;;;;;4.26;100.00;98612.22;10241301;28;20089;-63
2021/11/17 05:05:45;;;;;;;59.90;25.85;;;;;;;4.24;100.00;98601.69;10241095;29;20067;-63
2021/11/17 05:11:03;;;;;;;54.20;24.48;;;;;;;4.25;100.00;98602.53;10246737;28;20055;-63
2021/11/17 05:16:18;;;;;;;46.78;23.08;;;;;;;4.23;100.00;98594.66;10236450;28;20051;-61
2021/11/17 05:21:46;;;;;;;47.70;22.17;;;;;;;4.23;100.00;98597.31;10242525;28;20146;-60
2021/11/17 05:27:01;;;;;;;45.47;21.27;;;;;;;4.21;100.00;98601.91;10240976;29;20049;-57
2021/11/17 05:32:20;;;;;;;46.97;22.00;;;;;;;4.21;100.00;98611.75;10241708;28;20058;-56
2021/11/17 05:37:34;;;;;;;41.97;20.35;;;;;;;4.21;100.00;98617.91;10239997;28;20595;-56
2021/11/17 05:42:52;;;;;;;40.55;19.10;;;;;;;4.20;100.00;98621.53;10240002;28;20055;-63
2021/11/17 05:48:08;;;;;;;34.45;16.33;;;;;;;4.21;100.00;98620.56;10239587;28;20070;-58
2021/11/17 05:53:27;;;;;;;26.50;13.23;;;;;;;4.20;100.00;98623.38;10236584;28;20047;-54
2021/11/17 05:58:54;;;;;;;33.35;15.13;;;;;;;4.19;100.00;98630.50;10240146;28;20145;-55
2021/11/17 06:03:58;;;;;;;26.85;12.65;;;;;;;4.21;100.00;98628.56;10240748;29;20490;-62
2021/11/17 06:09:01;;;;;;;27.27;12.63;;;;;;;4.24;100.00;98633.69;10239797;28;20480;-55
2021/11/17 06:14:09;;;;;;;22.20;10.88;;;;;;;4.24;100.00;98627.47;10264828;28;20674;-58
2021/11/17 06:19:13;;;;;;;23.10;11.55;;;;;;;4.23;100.00;98637.31;10237297;28;20054;-56
2021/11/17 06:24:20;;;;;;;27.15;12.65;;;;;;;4.20;100.00;98637.53;10238953;28;20059;-57
2021/11/17 06:29:27;;;;;;;26.92;13.75;;;;;;;4.16;100.00;98657.41;10239693;28;20504;-57
2021/11/17 06:34:34;;;;;;;24.95;13.02;;;;;;;4.13;100.00;98652.31;10239354;29;20413;-57
2021/11/17 06:39:38;;;;;;;21.60;11.35;;;;;;;4.11;100.00;98654.22;10239422;28;20467;-56
2021/11/17 06:44:45;;;;;;;20.83;10.20;;;;;;;4.10;100.00;98660.53;10238960;29;20043;-57
2021/11/17 06:49:49;;;;;;;20.58;10.98;;;;;;;4.09;100.00;98666.81;10239929;28;20252;-58
2021/11/17 06:54:52;;;;;;;22.75;12.65;;;;;;;4.07;100.00;98666.94;10246591;28;20047;-53
2021/11/17 06:59:56;;;;;;;19.77;11.73;;;;;;;4.07;100.00;98658.09;10245199;28;20098;-53
2021/11/17 07:04:59;;;;;;;23.95;13.23;;;;;;;4.09;100.00;98674.81;10246133;29;20070;-60
2021/11/17 07:10:04;;;;;;;21.02;11.93;;;;;;;4.09;100.00;98677.50;10248369;28;20599;-55
2021/11/17 07:15:14;;;;;;;18.15;11.13;;;;;;;4.11;100.00;98683.56;10245464;29;20054;-63
2021/11/17 07:20:18;;;;;;;25.77;13.88;;;;;;;4.12;100.00;98682.59;10247847;28;20095;-56
2021/11/17 07:25:23;;;;;;;25.40;13.20;;;;;;;4.13;100.00;98690.47;10246411;28;20139;-58
2021/11/17 07:30:30;;;;;;;27.42;13.60;;;;;;;4.13;100.00;98692.31;10231028;28;20075;-53
2021/11/17 07:35:35;;;;;;;26.38;13.82;;;;;;;4.14;100.00;98692.19;10243184;29;20094;-54
2021/11/17 07:40:41;;;;;;;28.70;13.43;;;;;;;4.15;100.00;98703.72;10249548;28;20106;-54
2021/11/17 07:45:46;;;;;;;29.98;14.50;;;;;;;4.14;100.00;98705.50;10242318;29;20126;-59
2021/11/17 07:50:49;;;;;;;27.88;14.45;;;;;;;4.15;100.00;98703.72;10245700;28;20058;-56
2021/11/17 07:55:54;;;;;;;21.65;12.02;;;;;;;4.10;100.00;98706.72;10245621;28;20134;-54
2021/11/17 08:01:01;;;;;;;16.35;10.43;;;;;;;4.00;100.00;98703.88;10242032;28;20058;-53
2021/11/17 08:06:05;;;;;;;14.90;9.85;;;;;;;3.90;100.00;98713.50;10245650;28;20570;-59
2021/11/17 08:11:11;;;;;;;12.52;7.63;;;;;;;3.74;100.00;98710.25;10245784;28;20102;-59
2021/11/17 08:16:18;;;;;;;11.45;6.20;;;;;;;3.63;100.00;98713.69;10243032;29;20150;-56
2021/11/17 08:21:21;;;;;;;12.60;6.55;;;;;;;3.55;100.00;98720.41;10235577;28;20426;-57
2021/11/17 08:26:24;;;;;;;9.65;6.90;;;;;;;3.46;100.00;98725.56;10242861;29;20070;-55
2021/11/17 08:31:29;;;;;;;10.02;6.95;;;;;;;3.41;100.00;98735.66;10241296;28;20098;-55
2021/11/17 08:36:32;;;;;;;14.55;9.45;;;;;;;3.41;100.00;98731.19;10246112;28;20425;-62
2021/11/17 08:41:36;;;;;;;13.18;9.48;;;;;;;3.38;100.00;98736.75;10248552;28;20566;-55
2021/11/17 08:46:40;;;;;;;14.63;9.57;;;;;;;3.35;100.00;98727.13;10242060;29;20130;-57
2021/11/17 08:51:44;;;;;;;15.88;10.27;;;;;;;3.33;100.00;98729.09;10245518;28;20051;-61
2021/11/17 08:56:47;;;;;;;15.75;9.00;;;;;;;3.30;100.00;98736.41;10242609;28;20078;-53
2021/11/17 09:01:51;;;;;;;14.82;9.20;;;;;;;3.29;100.00;98735.56;10249341;28;20106;-57
2021/11/17 09:06:55;;;;;;;11.27;7.70;;;;;;;3.31;100.00;98744.31;10237374;29;20407;-56
2021/11/17 09:11:58;;;;;;;10.90;7.10;;;;;;;3.32;100.00;98743.34;10239854;28;20503;-55
2021/11/17 09:17:04;;;;;;;9.15;6.80;;;;;;;3.35;100.00;98759.09;10241338;29;20122;-56
2021/11/17 09:22:07;;;;;;;9.45;7.15;;;;;;;3.37;100.00;98751.84;10245025;28;20111;-57
2021/11/17 09:27:10;;;;;;;8.38;6.75;;;;;;;3.41;100.00;98756.97;10239465;28;20047;-54
2021/11/17 09:32:15;;;;;;;9.15;6.00;;;;;;;3.44;100.00;98756.78;10239680;28;20406;-57
2021/11/17 09:37:23;;;;;;;8.90;6.63;;;;;;;3.45;100.00;98759.31;10237948;29;20383;-57
2021/11/17 09:42:27;;;;;;;11.30;6.85;;;;;;;3.48;100.00;98764.44;10242299;28;20071;-53
2021/11/17 09:47:34;;;;;;;7.25;5.53;;;;;;;3.52;100.00;98760.59;10240066;29;20065;-55
2021/11/17 09:52:41;;;;;;;7.47;5.28;;;;;;;3.58;100.00;98758.44;10242652;28;20122;-57
2021/11/17 09:57:47;;;;;;;8.77;4.50;;;;;;;3.63;100.00;98757.16;10238099;29;20039;-60
2021/11/17 10:02:55;;;;;;;9.75;5.78;;;;;;;3.68;100.00;98749.72;10240205;28;20047;-58
2021/11/17 10:13:30;;;;;;;5.80;3.88;;;;;;;3.76;100.00;98733.19;10249505;28;20114;-58
2021/11/17 10:18:38;;;;;;;5.60;3.33;;;;;;;3.83;100.00;98747.75;10239754;28;20051;-56
2021/11/17 10:23:57;;;;;;;5.22;2.97;;;;;;;4.03;100.00;98723.28;10238928;28;20090;-56
2021/11/17 10:29:04;;;;;;;3.40;2.22;;;;;;;4.06;100.00;98729.22;10238883;28;20126;-59
2021/11/17 10:34:14;;;;;;;3.03;2.50;;;;;;;4.10;100.00;98727.19;10242841;28;20122;-58
2021/11/17 10:39:21;;;;;;;2.30;1.90;;;;;;;4.06;100.00;98713.22;10245991;28;20385;-57
2021/11/17 10:44:44;;;;;;;2.45;2.13;;;;;;;4.07;100.00;98706.06;10270173;28;20385;-55
2021/11/17 10:49:51;;;;;;;2.88;2.20;;;;;;;4.04;100.00;98706.31;10246215;28;20071;-59
2021/11/17 10:54:56;;;;;;;2.97;2.35;;;;;;;4.03;100.00;98704.63;10247324;28;20507;-53
2021/11/17 11:00:01;;;;;;;3.55;2.10;;;;;;;4.01;100.00;98712.72;10246218;28;20055;-61
2021/11/17 11:05:08;;;;;;;2.92;2.50;;;;;;;3.99;100.00;98720.84;10246151;29;20047;-53
2021/11/17 11:10:16;;;;;;;3.60;2.75;;;;;;;3.99;100.00;98720.84;10246539;28;20448;-53
2021/11/17 11:15:22;;;;;;;4.47;3.50;;;;;;;3.97;100.00;98716.59;10242016;29;20057;-56
2021/11/17 11:20:47;;;;;;;5.28;3.45;;;;;;;4.00;100.00;98721.66;10270721;23;20559;-77
2021/11/17 11:26:00;;;;;;;6.13;3.60;;;;;;;4.01;100.00;98724.25;10244348;29;20044;-77
2021/11/17 11:31:45;;;;;;;3.70;3.30;;;;;;;3.98;100.00;98724.47;10260654;28;20059;-77
2021/11/17 11:36:50;;;;;;;4.00;3.53;;;;;;;4.01;100.00;98718.91;10205548;29;20142;-76
2021/11/17 11:42:12;;;;;;;3.97;3.35;;;;;;;4.04;100.00;98732.97;10246306;28;20444;-77
2021/11/17 11:47:51;;;;;;;4.97;3.58;;;;;;;4.03;100.00;98725.94;10244322;28;20063;-77
2021/11/17 11:53:06;;;;;;;3.40;2.85;;;;;;;4.06;100.00;98728.41;10257261;28;20051;-77
2021/11/17 11:58:35;;;;;;;5.55;3.30;;;;;;;4.09;100.00;98728.16;10244533;29;20054;-77
2021/11/17 12:03:45;;;;;;;3.83;3.40;;;;;;;4.13;100.00;98732.31;10249818;28;20051;-77
2021/11/17 12:08:55;;;;;;;5.20;3.70;;;;;;;4.20;100.00;98716.72;10240762;29;20240;-77
2021/11/17 12:14:01;;;;;;;4.85;3.58;;;;;;;4.23;100.00;98733.31;10246746;28;20114;-77
2021/11/17 12:19:08;;;;;;;4.65;4.15;;;;;;;4.29;100.00;98738.19;10251362;28;20179;-76
2021/11/17 12:24:23;;;;;;;4.80;3.53;;;;;;;4.37;100.00;98742.13;10246863;28;20058;-77
2021/11/17 12:29:29;;;;;;;4.28;3.60;;;;;;;4.38;100.00;98734.00;10243097;29;20508;-76
2021/11/17 12:34:38;;;;;;;4.10;3.50;;;;;;;4.47;100.00;98735.13;10245716;28;20059;-77
2021/11/17 12:39:53;;;;;;;4.93;3.78;;;;;;;4.56;100.00;98738.94;10250647;28;20054;-77
2021/11/17 12:44:57;;;;;;;3.33;2.80;;;;;;;4.58;100.00;98731.69;10245180;28;20055;-78
2021/11/17 12:50:05;;;;;;;3.70;3.28;;;;;;;4.65;100.00;98737.38;10234555;28;20440;-78
2021/11/17 12:55:17;;;;;;;2.80;2.42;;;;;;;4.70;100.00;98738.75;10248917;28;20404;-78
2021/11/17 13:00:44;;;;;;;5.00;3.10;;;;;;;4.70;100.00;98729.88;10251039;29;20063;-77
2021/11/17 13:06:01;;;;;;;4.43;3.70;;;;;;;4.80;100.00;98728.22;10242103;29;20480;-78
2021/11/17 13:11:13;;;;;;;3.85;3.42;;;;;;;4.94;100.00;98717.34;10240182;28;20057;-77
2021/11/17 13:16:20;;;;;;;;;;;;;;;4.95;100.00;98723.50;10236114;28;20055;-75
2021/11/17 13:21:33;;;;;;;3.90;3.15;;;;;;;5.03;100.00;98722.91;10249103;28;19953;-77
2021/11/17 13:26:40;;;;;;;3.63;3.05;;;;;;;5.04;100.00;98729.97;10241945;29;20069;-77
2021/11/17 13:31:44;;;;;;;3.40;2.88;;;;;;;5.02;100.00;98732.75;10242826;28;20087;-77
2021/11/17 13:36:49;;;;;;;3.13;2.83;;;;;;;5.06;100.00;98728.88;10239226;29;20035;-77
2021/11/17 13:41:56;;;;;;;3.33;2.70;;;;;;;5.06;100.00;98728.88;10239517;28;20051;-77
2021/11/17 13:47:05;;;;;;;5.30;3.00;;;;;;;5.10;100.00;98724.16;10243260;29;20154;-77
2021/11/17 13:52:11;;;;;;;2.50;2.30;;;;;;;5.10;100.00;98718.81;10241237;28;20043;-78
2021/11/17 13:57:17;;;;;;;2.90;2.38;;;;;;;5.15;100.00;98703.28;10244628;28;20571;-76
2021/11/17 14:02:21;;;;;;;4.00;2.78;;;;;;;5.21;100.00;98707.28;10237202;28;20418;-77
2021/11/17 14:07:26;;;;;;;4.65;3.92;;;;;;;5.23;100.00;98719.53;10243869;28;20070;-78
2021/11/17 14:12:30;;;;;;;5.03;3.53;;;;;;;5.23;100.00;98718.72;10234499;28;20047;-77
2021/11/17 14:17:33;;;;;;;5.93;4.38;;;;;;;5.18;100.00;98718.19;10249258;29;20419;-76
2021/11/17 14:22:36;;;;;;;4.97;3.60;;;;;;;5.12;100.00;98716.03;10249634;28;20946;-77
2021/11/17 14:27:43;;;;;;;5.18;3.83;;;;;;;5.07;100.00;98725.22;10239426;29;20094;-78
2021/11/17 14:32:49;;;;;;;5.07;3.72;;;;;;;5.01;100.00;98723.06;10246813;28;20051;-78
2021/11/17 14:37:54;;;;;;;5.63;3.63;;;;;;;4.93;100.00;98720.97;10247964;29;20122;-78
2021/11/17 14:42:58;;;;;;;6.75;4.03;;;;;;;4.86;100.00;98703.72;10242636;28;20057;-78
2021/11/17 14:48:01;;;;;;;7.45;3.80;;;;;;;4.82;100.00;98718.28;10246967;29;20043;-78
2021/11/17 14:53:04;;;;;;;5.88;4.40;;;;;;;4.70;100.00;98720.06;10244609;28;20047;-78
2021/11/17 14:58:10;;;;;;;10.10;6.18;;;;;;;4.63;100.00;98733.03;10235655;29;20479;-78
2021/11/17 15:03:13;;;;;;;5.43;3.70;;;;;;;4.57;100.00;98725.47;10247910;28;20116;-78
2021/11/17 15:08:16;;;;;;;5.38;3.75;;;;;;;4.50;100.00;98748.25;10245678;29;20224;-78
2021/11/17 15:13:21;;;;;;;4.53;3.50;;;;;;;4.46;100.00;98749.44;10247787;28;20066;-77
2021/11/17 15:18:24;;;;;;;5.18;4.05;;;;;;;4.43;100.00;98745.19;10246927;28;20086;-77
2021/11/17 15:23:30;;;;;;;6.03;3.40;;;;;;;4.42;100.00;98742.63;10248605;28;20057;-77
2021/11/17 15:28:37;;;;;;;5.97;3.72;;;;;;;4.43;100.00;98733.66;10245103;28;20137;-77
2021/11/17 15:33:41;;;;;;;6.45;3.97;;;;;;;4.42;100.00;98742.63;10249157;28;20536;-78
2021/11/17 15:38:47;;;;;;;6.10;4.15;;;;;;;4.42;100.00;98747.94;10245403;29;20122;-79
2021/11/17 15:43:53;;;;;;;6.03;3.92;;;;;;;4.42;100.00;98759.50;10269622;28;20066;-79
2021/11/17 15:48:56;;;;;;;6.70;3.80;;;;;;;4.42;100.00;98763.97;10263558;28;20429;-76
2021/11/17 15:54:00;;;;;;;6.35;3.75;;;;;;;4.43;100.00;98773.66;10247629;28;20160;-78
2021/11/17 15:59:04;;;;;;;6.75;3.70;;;;;;;4.45;100.00;98763.75;10251593;29;20047;-78
2021/11/17 16:04:08;;;;;;;9.18;4.50;;;;;;;4.49;100.00;98773.22;10239681;29;20151;-78
2021/11/17 16:09:11;;;;;;;5.25;4.10;;;;;;;4.51;100.00;98778.44;10246001;28;20126;-76
2021/11/17 16:14:17;;;;;;;7.05;4.30;;;;;;;4.54;100.00;98776.38;10246840;28;20054;-77
2021/11/17 16:19:22;;;;;;;4.82;3.83;;;;;;;4.55;100.00;98780.75;10246622;29;20073;-78
2021/11/17 16:29:52;;;;;;;6.00;4.10;;;;;;;4.60;100.00;98804.44;10241463;28;20069;-74
2021/11/17 16:34:55;;;;;;;7.38;3.80;;;;;;;4.62;100.00;98803.38;10233329;28;20051;-75
2021/11/17 16:40:10;;;;;;;5.38;4.45;;;;;;;4.65;100.00;98812.09;10262287;28;20051;-75
2021/11/17 16:45:27;;;;;;;5.53;4.07;;;;;;;4.70;100.00;98801.94;10245659;28;20046;-76
2021/11/17 16:50:31;;;;;;;6.38;4.53;;;;;;;4.74;100.00;98816.78;10242750;29;20087;-75
2021/11/17 16:55:36;;;;;;;6.05;3.95;;;;;;;4.77;100.00;98830.75;10251809;28;20138;-78
2021/11/17 17:00:43;;;;;;;5.28;3.80;;;;;;;4.80;100.00;98832.31;10242698;29;20054;-77
2021/11/17 17:05:48;;;;;;;5.50;3.45;;;;;;;4.84;100.00;98839.16;10225208;29;20538;-78
2021/11/17 17:10:51;;;;;;;5.95;2.80;;;;;;;4.87;100.00;98836.25;10249873;28;20053;-76
2021/11/17 17:15:56;;;;;;;3.88;2.85;;;;;;;4.93;100.00;98856.31;10242179;29;20051;-77
2021/11/17 17:21:01;;;;;;;4.13;2.88;;;;;;;5.01;100.00;98855.69;10234117;28;20424;-76
2021/11/17 17:26:05;;;;;;;4.25;3.47;;;;;;;5.05;100.00;98846.50;10229193;29;20047;-79
2021/11/17 17:31:19;;;;;;;7.07;4.88;;;;;;;5.08;100.00;98856.97;10242710;28;20138;-77
2021/11/17 17:36:22;;;;;;;5.57;4.30;;;;;;;5.07;100.00;98871.28;10250794;28;20047;-77
2021/11/17 17:41:25;;;;;;;7.65;5.40;;;;;;;5.07;100.00;98871.28;10237139;28;20059;-76
2021/11/17 17:46:32;;;;;;;12.65;7.57;;;;;;;5.09;100.00;98874.69;10244976;29;20039;-77
2021/11/17 17:51:35;;;;;;;12.07;7.80;;;;;;;5.07;100.00;98876.63;10241135;28;20071;-76
2021/11/17 17:56:38;;;;;;;7.57;5.95;;;;;;;5.06;100.00;98883.75;10240517;29;20053;-76
2021/11/17 18:01:43;;;;;;;8.40;4.88;;;;;;;5.07;100.00;98896.16;10240823;28;20028;-76
2021/11/17 18:06:46;;;;;;;7.60;5.28;;;;;;;5.07;100.00;98893.47;10240339;29;20043;-76
2021/11/17 18:11:49;;;;;;;8.30;5.20;;;;;;;5.11;100.00;98906.63;10238799;28;20054;-76
2021/11/17 18:16:54;;;;;;;7.57;5.20;;;;;;;5.12;100.00;98913.66;10238643;29;20043;-76
2021/11/17 18:21:59;;;;;;;8.23;5.93;;;;;;;5.13;100.00;98918.03;10242656;28;20519;-78
2021/11/17 18:27:06;;;;;;;7.22;5.60;;;;;;;5.15;100.00;98932.13;10253486;28;20054;-77
2021/11/17 18:32:20;;;;;;;8.20;5.68;;;;;;;5.15;100.00;98946.34;10263823;28;20047;-76
2021/11/17 18:37:24;;;;;;;7.82;5.50;;;;;;;5.18;100.00;98951.47;10240453;29;20047;-78
2021/11/17 18:42:33;;;;;;;7.35;4.93;;;;;;;5.19;100.00;98968.31;10240450;28;20059;-78
2021/11/17 18:47:37;;;;;;;6.93;5.00;;;;;;;5.22;100.00;98971.66;10245618;29;20085;-78
2021/11/17 18:52:40;;;;;;;8.20;4.88;;;;;;;5.24;100.00;98983.03;10244089;28;20122;-78
2021/11/17 18:57:44;;;;;;;6.95;4.95;;;;;;;5.29;100.00;98988.06;10236490;29;20075;-78
2021/11/17 19:02:52;;;;;;;7.80;5.63;;;;;;;5.33;100.00;98988.69;10253558;28;20416;-78
2021/11/17 19:07:56;;;;;;;7.22;5.10;;;;;;;5.34;100.00;98993.06;10253474;29;20042;-78
2021/11/17 19:13:00;;;;;;;6.18;4.90;;;;;;;5.36;100.00;98993.78;10229975;28;20114;-77
2021/11/17 19:18:04;;;;;;;6.95;5.13;;;;;;;5.38;100.00;99015.91;10230333;29;20082;-78
2021/11/17 19:23:08;;;;;;;6.47;5.22;;;;;;;5.47;100.00;99022.41;10248188;28;20106;-78
2021/11/17 19:28:11;;;;;;;6.53;5.25;;;;;;;5.55;100.00;99020.00;10245654;29;20038;-77
2021/11/17 19:33:16;;;;;;;9.02;4.90;;;;;;;5.65;100.00;99037.03;10261927;28;20078;-77
2021/11/17 19:38:21;;;;;;;6.75;5.47;;;;;;;5.65;100.00;99026.34;10246016;28;20052;-77
2021/11/17 19:43:25;;;;;;;7.72;5.25;;;;;;;5.73;100.00;99044.50;10242320;28;20147;-76
2021/11/17 19:48:30;;;;;;;7.15;5.22;;;;;;;5.80;100.00;99047.56;10242838;28;20043;-77
2021/11/17 19:53:34;;;;;;;8.05;5.55;;;;;;;5.84;100.00;99051.72;10248839;28;20038;-75
2021/11/17 19:58:37;;;;;;;6.78;5.60;;;;;;;5.91;100.00;99065.50;10246185;29;20058;-77
2021/11/17 20:03:42;;;;;;;8.52;5.47;;;;;;;5.95;100.00;99059.78;10231855;28;20051;-78
2021/11/17 20:08:46;;;;;;;7.03;5.90;;;;;;;5.97;100.00;99054.31;10243585;29;20054;-78
2021/11/17 20:13:49;;;;;;;7.45;5.95;;;;;;;5.95;100.00;99065.13;10245781;28;20074;-76
2021/11/17 20:18:54;;;;;;;8.90;6.53;;;;;;;5.97;100.00;99051.63;10242644;29;20063;-78
2021/11/17 20:23:57;;;;;;;9.02;7.15;;;;;;;6.00;100.00;99070.16;10246793;28;21163;-77
2021/11/17 20:29:01;;;;;;;10.80;6.57;;;;;;;5.97;100.00;99083.75;10258239;28;20548;-78
2021/11/17 20:34:07;;;;;;;10.70;6.75;;;;;;;5.96;100.00;99093.59;10241185;28;20486;-76
2021/11/17 20:39:11;;;;;;;11.57;7.13;;;;;;;5.98;100.00;99104.16;10238661;29;20047;-76
2021/11/17 20:44:17;;;;;;;9.15;6.40;;;;;;;6.02;100.00;99103.00;10242128;28;20591;-76
2021/11/17 20:49:22;;;;;;;8.63;6.65;;;;;;;6.08;100.00;99102.53;10243621;29;20047;-76
2021/11/17 20:54:25;;;;;;;7.65;5.78;;;;;;;6.08;100.00;99115.91;10239808;28;20154;-75
2021/11/17 20:59:29;;;;;;;8.80;6.47;;;;;;;6.08;100.00;99125.78;10244558;28;20122;-76
2021/11/17 21:04:33;;;;;;;11.98;7.38;;;;;;;6.05;100.00;99131.34;10244062;28;20043;-76
2021/11/17 21:09:37;;;;;;;11.93;7.72;;;;;;;6.07;100.00;99122.22;10243440;29;20530;-76
2021/11/17 21:14:41;;;;;;;10.75;7.95;;;;;;;6.04;100.00;99127.81;10244253;28;20511;-76
2021/11/17 21:19:45;;;;;;;12.10;8.52;;;;;;;6.01;100.00;99136.06;10248253;29;20082;-76
2021/11/17 21:24:48;;;;;;;7.90;6.43;;;;;;;5.99;100.00;99136.19;10238777;28;20601;-76
2021/11/17 21:29:51;;;;;;;13.43;8.40;;;;;;;5.93;100.00;99130.41;10237230;29;20043;-77
2021/11/17 21:34:56;;;;;;;10.98;8.05;;;;;;;5.88;100.00;99137.91;10238432;28;20055;-76
2021/11/17 21:39:59;;;;;;;11.50;8.43;;;;;;;5.81;100.00;99143.75;10259272;28;20051;-77
2021/11/17 21:45:03;;;;;;;13.65;8.65;;;;;;;5.76;100.00;99145.03;10276477;28;20057;-76
2021/11/17 21:50:09;;;;;;;13.45;9.65;;;;;;;5.67;100.00;99154.59;10280037;28;20410;-74
2021/11/17 21:55:15;;;;;;;13.10;9.25;;;;;;;5.61;100.00;99152.34;10274287;28;20125;-76
2021/11/17 22:00:21;;;;;;;13.93;10.10;;;;;;;5.52;100.00;99143.19;10279822;28;20043;-76
2021/11/17 22:05:36;;;;;;;13.68;9.40;;;;;;;5.47;100.00;99151.50;10279811;28;20138;-76
2021/11/17 22:10:41;;;;;;;13.25;8.68;;;;;;;5.38;100.00;99147.72;10265279;28;20102;-77
2021/11/17 22:15:45;;;;;;;11.63;8.70;;;;;;;5.31;100.00;99151.78;10279131;28;20053;-76
2021/11/17 22:20:53;;;;;;;17.02;9.52;;;;;;;5.27;100.00;99161.00;10285501;28;20100;-76
2021/11/17 22:25:58;;;;;;;15.25;8.50;;;;;;;5.19;100.00;99161.53;10296800;28;20117;-77
2021/11/17 22:31:03;;;;;;;12.43;8.90;;;;;;;5.19;100.00;99164.19;10303489;28;20037;-77
2021/11/17 22:36:08;;;;;;;12.80;9.55;;;;;;;5.15;100.00;99156.50;10310632;28;20070;-76
2021/11/17 22:41:12;;;;;;;15.20;10.20;;;;;;;5.08;100.00;99164.09;10313379;28;20508;-76
2021/11/17 22:46:15;;;;;;;14.68;9.90;;;;;;;5.04;100.00;99175.94;10302704;28;20046;-76
2021/11/17 22:51:20;;;;;;;14.77;9.70;;;;;;;4.99;100.00;99173.59;10285749;28;20050;-76
2021/11/17 22:56:24;;;;;;;15.70;11.32;;;;;;;4.97;100.00;99164.84;10294555;28;20578;-77
2021/11/17 23:01:29;;;;;;;23.25;14.25;;;;;;;4.92;100.00;99157.16;10270128;28;20051;-77
2021/11/17 23:06:34;;;;;;;23.85;15.15;;;;;;;4.90;100.00;99164.41;10299949;28;20533;-77
2021/11/17 23:11:39;;;;;;;17.42;11.13;;;;;;;4.84;100.00;99159.50;10284906;28;20109;-77
2021/11/17 23:16:45;;;;;;;15.20;11.32;;;;;;;4.82;100.00;99161.44;10294927;28;20855;-76
2021/11/17 23:21:50;;;;;;;13.68;10.30;;;;;;;4.83;100.00;99155.13;10298512;28;20075;-76
2021/11/17 23:26:54;;;;;;;14.68;9.82;;;;;;;4.85;100.00;99155.88;10295995;28;20122;-76
2021/11/17 23:31:58;;;;;;;12.38;9.75;;;;;;;4.83;100.00;99172.94;10302924;28;20050;-76
2021/11/17 23:37:03;;;;;;;14.70;10.20;;;;;;;4.78;100.00;99171.47;10286257;28;20113;-76
2021/11/17 23:42:06;;;;;;;15.52;10.30;;;;;;;4.73;100.00;99164.75;10291776;28;20407;-76
2021/11/17 23:47:09;;;;;;;13.40;9.65;;;;;;;4.67;100.00;99160.69;10295277;28;20069;-76
2021/11/17 23:52:13;;;;;;;14.77;10.63;;;;;;;4.65;100.00;99164.41;10297650;28;20117;-76
2021/11/17 23:57:16;;;;;;;14.68;10.90;;;;;;;4.59;100.00;99166.53;10298128;28;20076;-75
